KSUX/SUX METAR and TAF weather

Enter ICAO airport designator
Station Type Date Time Source
KSUX METAR 2019/10/23 12:52 UTC NOAA

KSUX 231252Z 11006KT 10SM BKN055 OVC085 05/02 A2979 RMK AO2 SLP095 T00500022


Station Type Date Time Source
KSUX Decoded METAR 2019/10/23 12:52 UTC NOAA

SIOUX GATEWAY AIRPORT, IA, United States (KSUX) 42-23N 96-23W 338M
Oct 23, 2019 - 08:52 AM EDT / 2019.10.23 1252 UTC
Wind: from the ESE (110 degrees) at 7 MPH (6 KT):0
Visibility: 10 mile(s):0
Sky conditions: overcast
Temperature: 41.0 F (5.0 C)
Dew Point: 36.0 F (2.2 C)
Relative Humidity: 82%
Pressure (altimeter): 29.79 in. Hg (1008 hPa)
ob: KSUX 231252Z 11006KT 10SM BKN055 OVC085 05/02 A2979 RMK AO2 SLP095 T00500022
cycle: 13

Station Type Date Time Source
KSUX TAF 2019/10/23 12:22 UTC NOAA

TAF KSUX 231120Z 2312/2412 VRB04KT P6SM VCSH BKN070
FM231400 04003KT 6SM -SHRA BKN035
FM231700 32009KT P6SM VCSH BKN025
FM231800 32010G16KT P6SM SCT015
FM240100 33010KT P6SM BKN035

Example: see airport list